Time;durP1;ratioP1;P1;durP2;ratioP2;P2;SDS_P1;SDS_P2;PMS_P1;PMS_P2;Temp;Humidity;BMP_temperature;BMP_pressure;BME280_temperature;BME280_humidity;BME280_pressure;Samples;Min_cycle;Max_cycle;Signal;HPM_P1;HPM_P2
2022/08/07 00:01:26;;;;;;;3.93;3.23;;;14.40;99.90;;;;;;5089298;28;20186;-47
2022/08/07 00:03:52;;;;;;;3.50;3.20;;;14.40;99.90;;;;;;5089714;28;20261;-44
2022/08/07 00:06:18;;;;;;;3.77;3.47;;;14.40;99.90;;;;;;5089170;28;20231;-44
2022/08/07 00:08:43;;;;;;;4.33;3.07;;;14.30;99.90;;;;;;5088850;28;20177;-44
2022/08/07 00:11:09;;;;;;;2.77;2.57;;;14.30;99.90;;;;;;5089195;28;20230;-46
2022/08/07 00:13:39;;;;;;;3.10;2.90;;;14.30;99.90;;;;;;5089039;28;20291;-45
2022/08/07 00:16:04;;;;;;;3.40;3.10;;;14.20;99.90;;;;;;5089479;28;20315;-44
2022/08/07 00:18:31;;;;;;;4.00;2.90;;;14.20;99.90;;;;;;5088986;28;21108;-45
2022/08/07 00:20:59;;;;;;;3.00;2.80;;;14.20;99.90;;;;;;5088504;28;21070;-44
2022/08/07 00:23:25;;;;;;;3.73;2.73;;;14.20;99.90;;;;;;5089249;28;20461;-45
2022/08/07 00:25:51;;;;;;;2.93;2.53;;;14.20;99.90;;;;;;5089174;28;20419;-45
2022/08/07 00:28:17;;;;;;;3.53;3.23;;;14.20;99.90;;;;;;5088401;28;20444;-44
2022/08/07 00:30:43;;;;;;;4.03;3.20;;;14.10;99.90;;;;;;5089300;28;20507;-44
2022/08/07 00:33:09;;;;;;;3.03;2.83;;;14.10;99.90;;;;;;5087777;28;20457;-45
2022/08/07 00:35:35;;;;;;;3.83;3.43;;;14.10;99.90;;;;;;5089118;28;20650;-45
2022/08/07 00:38:00;;;;;;;2.97;2.77;;;14.10;99.90;;;;;;5090009;28;20211;-44
2022/08/07 00:40:27;;;;;;;3.20;2.90;;;14.00;99.90;;;;;;5092769;28;20184;-44
2022/08/07 00:42:53;;;;;;;3.73;3.00;;;14.00;99.90;;;;;;5092393;28;20249;-44
2022/08/07 00:45:20;;;;;;;2.90;2.70;;;14.00;99.90;;;;;;5092734;28;20442;-43
2022/08/07 00:47:46;;;;;;;3.60;2.80;;;14.00;99.90;;;;;;5092104;28;20200;-45
2022/08/07 00:50:12;;;;;;;3.20;2.90;;;14.00;99.90;;;;;;5092565;28;20434;-45
2022/08/07 00:52:38;;;;;;;3.17;2.97;;;13.90;99.90;;;;;;5092521;28;20477;-46
2022/08/07 00:55:05;;;;;;;3.30;2.80;;;13.90;99.90;;;;;;5092272;28;20536;-44
2022/08/07 00:57:31;;;;;;;4.10;3.37;;;13.80;99.90;;;;;;5091704;28;20620;-45
2022/08/07 00:59:57;;;;;;;4.10;2.77;;;13.80;99.90;;;;;;5092365;28;20517;-44
2022/08/07 01:02:24;;;;;;;4.10;3.10;;;13.70;99.90;;;;;;5092631;28;20815;-47
2022/08/07 01:04:50;;;;;;;2.97;2.77;;;13.70;99.90;;;;;;5092164;28;20240;-46
2022/08/07 01:07:17;;;;;;;3.40;2.60;;;13.70;99.90;;;;;;5083333;28;20434;-44
2022/08/07 01:09:43;;;;;;;4.33;2.97;;;13.70;99.90;;;;;;5091834;28;20418;-44
2022/08/07 01:12:09;;;;;;;3.43;3.13;;;13.70;99.90;;;;;;5092000;28;20512;-47
2022/08/07 01:14:36;;;;;;;2.90;2.70;;;13.70;99.90;;;;;;5092028;28;20212;-46
2022/08/07 01:17:02;;;;;;;2.90;2.70;;;13.70;99.90;;;;;;5091449;28;20418;-45
2022/08/07 01:19:29;;;;;;;3.90;2.60;;;13.60;99.90;;;;;;5090534;28;20480;-44
2022/08/07 01:21:55;;;;;;;3.40;3.07;;;13.60;99.90;;;;;;5092002;28;20180;-44
2022/08/07 01:24:21;;;;;;;3.23;2.80;;;13.60;99.90;;;;;;5091693;28;20414;-45
2022/08/07 01:26:49;;;;;;;3.27;2.80;;;13.60;99.90;;;;;;5091206;28;20220;-45
2022/08/07 01:29:15;;;;;;;3.27;2.83;;;13.50;99.90;;;;;;5091811;28;20483;-44
2022/08/07 01:31:40;;;;;;;2.90;2.53;;;13.50;99.90;;;;;;5091621;28;21062;-43
2022/08/07 01:34:06;;;;;;;2.97;2.67;;;13.40;99.90;;;;;;5091851;28;20437;-44
2022/08/07 01:36:33;;;;;;;2.90;2.53;;;13.30;99.90;;;;;;5091299;28;20172;-43
2022/08/07 01:38:59;;;;;;;4.70;2.80;;;13.30;99.90;;;;;;5091372;28;20204;-46
2022/08/07 01:41:25;;;;;;;3.10;2.50;;;13.30;99.90;;;;;;5091450;28;20493;-43
2022/08/07 01:43:51;;;;;;;3.07;2.77;;;13.20;99.90;;;;;;5091643;28;20299;-47
2022/08/07 01:46:18;;;;;;;3.77;3.40;;;13.20;99.90;;;;;;5091608;28;20513;-44
2022/08/07 01:48:46;;;;;;;3.17;2.90;;;13.20;99.90;;;;;;5090514;28;20657;-45
2022/08/07 01:51:20;;;;;;;3.30;3.00;;;13.10;99.90;;;;;;5091442;28;20463;-45
2022/08/07 01:53:49;;;;;;;4.13;3.20;;;13.20;99.90;;;;;;5090812;28;20454;-44
2022/08/07 01:56:25;;;;;;;3.17;2.97;;;13.10;99.90;;;;;;5091170;28;20422;-46
2022/08/07 01:59:01;;;;;;;3.50;3.17;;;13.10;99.90;;;;;;5090505;28;20429;-44
2022/08/07 02:01:33;;;;;;;2.60;2.40;;;13.10;99.90;;;;;;5091195;28;20418;-44
2022/08/07 02:04:09;;;;;;;3.93;2.93;;;13.00;99.90;;;;;;5090892;28;20921;-45
2022/08/07 02:06:38;;;;;;;4.00;3.20;;;13.00;99.90;;;;;;5090579;28;20978;-46
2022/08/07 02:09:06;;;;;;;4.00;2.90;;;13.00;99.90;;;;;;5090885;28;20520;-44
2022/08/07 02:11:35;;;;;;;3.07;2.77;;;13.00;99.90;;;;;;5091003;28;20431;-44
2022/08/07 02:14:02;;;;;;;3.73;2.70;;;13.00;99.90;;;;;;5090947;28;20441;-45
2022/08/07 02:16:30;;;;;;;3.60;3.30;;;13.00;99.90;;;;;;5090575;28;20419;-47
2022/08/07 02:18:56;;;;;;;3.80;3.10;;;12.90;99.90;;;;;;5087879;28;20423;-43
2022/08/07 02:21:23;;;;;;;3.73;3.03;;;12.90;99.90;;;;;;5090647;28;20422;-44
2022/08/07 02:23:50;;;;;;;2.93;2.60;;;12.90;99.90;;;;;;5090755;28;20181;-44
2022/08/07 02:26:17;;;;;;;3.50;3.07;;;12.80;99.90;;;;;;5090681;28;20433;-45
2022/08/07 02:28:43;;;;;;;2.70;2.50;;;12.80;99.90;;;;;;5090047;28;20777;-45
2022/08/07 02:31:11;;;;;;;3.27;2.97;;;12.80;99.90;;;;;;5090147;28;20419;-43
2022/08/07 02:33:38;;;;;;;3.43;3.13;;;12.80;99.90;;;;;;5090657;28;20496;-44
2022/08/07 02:36:04;;;;;;;3.57;3.20;;;12.90;99.90;;;;;;5090353;28;20419;-45
2022/08/07 02:38:34;;;;;;;3.47;3.10;;;12.80;99.90;;;;;;5090067;28;20941;-46
2022/08/07 02:41:01;;;;;;;3.40;3.20;;;12.80;99.90;;;;;;5090228;28;20431;-44
2022/08/07 02:43:28;;;;;;;5.23;3.13;;;12.80;99.90;;;;;;5090281;28;20425;-46
2022/08/07 02:45:57;;;;;;;3.73;3.30;;;12.90;99.90;;;;;;5090205;28;20434;-45
2022/08/07 02:48:24;;;;;;;3.13;2.93;;;12.80;99.90;;;;;;5089863;28;20423;-44
2022/08/07 02:50:53;;;;;;;3.60;2.90;;;12.90;99.90;;;;;;5090270;28;20422;-45
2022/08/07 02:53:30;;;;;;;2.80;2.60;;;13.00;99.90;;;;;;5090184;28;20462;-44
2022/08/07 02:55:58;;;;;;;3.57;3.27;;;12.90;99.90;;;;;;5090153;28;20422;-44
2022/08/07 02:58:25;;;;;;;3.57;3.07;;;12.90;99.90;;;;;;5089996;28;20438;-44
2022/08/07 03:00:56;;;;;;;3.10;2.90;;;12.90;99.90;;;;;;5089655;28;20426;-45
2022/08/07 03:03:23;;;;;;;4.07;3.10;;;12.90;99.90;;;;;;5090070;28;20430;-46
2022/08/07 03:05:53;;;;;;;3.10;2.80;;;12.90;99.90;;;;;;5090132;28;20475;-44
2022/08/07 03:08:20;;;;;;;3.63;3.33;;;12.90;99.90;;;;;;5089325;28;20943;-44
2022/08/07 03:10:46;;;;;;;3.63;3.30;;;13.00;99.90;;;;;;5089950;28;20418;-46
2022/08/07 03:13:16;;;;;;;2.90;2.63;;;13.00;99.90;;;;;;5089696;28;20473;-44
2022/08/07 03:15:42;;;;;;;4.80;2.90;;;13.00;99.90;;;;;;5090227;28;20483;-44
2022/08/07 03:18:09;;;;;;;3.10;2.90;;;13.00;99.90;;;;;;5086770;28;20834;-44
2022/08/07 03:20:35;;;;;;;3.17;2.87;;;12.90;99.90;;;;;;5088573;28;20418;-45
2022/08/07 03:23:01;;;;;;;3.17;2.87;;;12.90;99.90;;;;;;5089577;28;20430;-46
2022/08/07 03:25:30;;;;;;;2.90;2.70;;;12.80;99.90;;;;;;5089691;28;20475;-44
2022/08/07 03:27:57;;;;;;;4.03;3.40;;;12.80;99.90;;;;;;5089243;28;20689;-45
2022/08/07 03:30:24;;;;;;;2.80;2.60;;;12.70;99.90;;;;;;5089935;28;20476;-44
2022/08/07 03:32:52;;;;;;;3.37;3.07;;;12.70;99.90;;;;;;5089764;28;20836;-43
2022/08/07 03:35:23;;;;;;;3.10;2.80;;;12.70;99.90;;;;;;5089869;28;20464;-44
2022/08/07 03:38:07;;;;;;;7.03;2.70;;;12.80;99.90;;;;;;5089425;28;20471;-45
2022/08/07 03:40:34;;;;;;;3.73;2.70;;;12.80;99.90;;;;;;5089627;28;20410;-44
2022/08/07 03:43:00;;;;;;;2.97;2.70;;;12.80;99.90;;;;;;5089781;28;20427;-45
2022/08/07 03:45:28;;;;;;;3.10;2.80;;;12.80;99.90;;;;;;5089552;28;20503;-44
2022/08/07 03:47:55;;;;;;;5.30;3.20;;;12.80;99.90;;;;;;5089089;28;20479;-44
2022/08/07 03:50:23;;;;;;;2.97;2.77;;;12.80;99.90;;;;;;5088894;28;20426;-45
2022/08/07 03:52:51;;;;;;;2.90;2.70;;;12.80;99.90;;;;;;5089626;28;20469;-47
2022/08/07 03:55:17;;;;;;;3.33;3.03;;;12.80;99.90;;;;;;5089585;28;20830;-46
2022/08/07 03:57:45;;;;;;;2.93;2.73;;;12.80;99.90;;;;;;5089038;28;20426;-44
2022/08/07 04:00:13;;;;;;;3.70;3.23;;;12.80;99.90;;;;;;5089425;28;20433;-44
2022/08/07 04:02:41;;;;;;;2.97;2.67;;;12.80;99.90;;;;;;5089528;28;20448;-45
2022/08/07 04:05:08;;;;;;;4.07;3.77;;;12.80;99.90;;;;;;5089308;28;20789;-46
2022/08/07 04:07:34;;;;;;;3.40;3.10;;;12.80;99.90;;;;;;5088865;28;20422;-44
2022/08/07 04:10:01;;;;;;;4.53;3.10;;;12.80;99.90;;;;;;5089392;28;20423;-45
2022/08/07 04:12:29;;;;;;;4.70;3.30;;;12.80;99.90;;;;;;5091468;28;20457;-45
2022/08/07 04:14:57;;;;;;;2.70;2.50;;;12.90;99.90;;;;;;5093009;28;20426;-45
2022/08/07 04:17:22;;;;;;;3.60;3.30;;;12.90;99.90;;;;;;5092329;28;20509;-44
2022/08/07 04:19:51;;;;;;;2.90;2.70;;;12.90;99.90;;;;;;5091944;28;20509;-44
2022/08/07 04:22:17;;;;;;;3.60;3.20;;;12.90;99.90;;;;;;5093165;28;20196;-45
2022/08/07 04:24:44;;;;;;;4.00;3.07;;;13.00;99.90;;;;;;5093098;28;20418;-45
2022/08/07 04:27:10;;;;;;;2.87;2.67;;;13.00;99.90;;;;;;5092395;28;20184;-44
2022/08/07 04:29:36;;;;;;;2.50;2.30;;;13.00;99.90;;;;;;5092899;28;20445;-47
2022/08/07 04:32:02;;;;;;;2.80;2.60;;;13.00;99.90;;;;;;5092430;28;20460;-44
2022/08/07 04:34:28;;;;;;;2.97;2.73;;;13.10;99.90;;;;;;5093013;28;20196;-44
2022/08/07 04:36:54;;;;;;;3.70;2.67;;;13.10;99.90;;;;;;5092271;28;20742;-46
2022/08/07 04:39:20;;;;;;;3.70;2.60;;;13.10;99.90;;;;;;5092845;28;20428;-45
2022/08/07 04:41:46;;;;;;;2.60;2.40;;;13.10;99.90;;;;;;5092762;28;20655;-45
2022/08/07 04:44:12;;;;;;;2.93;2.40;;;13.20;99.90;;;;;;5092645;28;20427;-49
2022/08/07 04:46:44;;;;;;;3.03;2.70;;;13.10;99.90;;;;;;5091902;28;20814;-44
2022/08/07 04:49:39;;;;;;;3.20;2.90;;;13.10;99.90;;;;;;5092546;28;20192;-45
2022/08/07 04:52:23;;;;;;;2.53;2.40;;;13.10;99.90;;;;;;5092636;28;20786;-44
2022/08/07 04:54:58;;;;;;;2.63;2.40;;;13.10;99.90;;;;;;5092291;28;20936;-45
2022/08/07 04:57:56;;;;;;;2.77;2.57;;;13.10;99.90;;;;;;5092062;28;20426;-46
2022/08/07 05:01:17;;;;;;;2.90;2.60;;;13.10;99.90;;;;;;5091604;28;20960;-46
2022/08/07 05:03:50;;;;;;;3.00;2.70;;;13.20;99.90;;;;;;5048151;28;20429;-44
2022/08/07 05:06:35;;;;;;;4.53;2.40;;;13.30;99.90;;;;;;5092304;28;20448;-45
2022/08/07 05:09:08;;;;;;;2.50;2.20;;;13.30;99.90;;;;;;5092136;28;20415;-44
2022/08/07 05:11:39;;;;;;;2.73;2.53;;;13.30;99.90;;;;;;5091870;28;20406;-44
2022/08/07 05:14:16;;;;;;;3.00;2.10;;;13.40;99.90;;;;;;5091974;28;20462;-44
2022/08/07 05:16:46;;;;;;;5.10;2.30;;;13.40;99.90;;;;;;5091551;28;20422;-45
2022/08/07 05:19:22;;;;;;;2.60;2.40;;;13.50;99.90;;;;;;5090597;28;20972;-46
2022/08/07 05:21:53;;;;;;;2.77;2.53;;;13.50;99.90;;;;;;5091819;28;20526;-46
2022/08/07 05:24:21;;;;;;;2.10;2.00;;;13.60;99.90;;;;;;5091249;28;20975;-45
2022/08/07 05:26:50;;;;;;;2.77;2.57;;;13.60;99.90;;;;;;5091271;28;20454;-44
2022/08/07 05:29:18;;;;;;;3.30;2.40;;;13.70;99.90;;;;;;5091892;28;20421;-44
2022/08/07 05:31:47;;;;;;;2.40;2.20;;;13.70;99.90;;;;;;5091643;28;20507;-44
2022/08/07 05:34:15;;;;;;;2.43;2.23;;;13.80;99.90;;;;;;5091831;28;20473;-44
2022/08/07 05:36:44;;;;;;;3.30;2.60;;;13.80;99.90;;;;;;5091096;28;20437;-46
2022/08/07 05:39:11;;;;;;;2.47;2.27;;;13.90;99.90;;;;;;5091799;28;20414;-47
2022/08/07 05:41:38;;;;;;;3.20;2.63;;;14.00;99.90;;;;;;5091431;28;20430;-44
2022/08/07 05:44:04;;;;;;;4.13;2.57;;;14.00;99.90;;;;;;5091765;28;20461;-45
2022/08/07 05:46:30;;;;;;;2.30;2.03;;;14.10;99.90;;;;;;5091376;28;20457;-45
2022/08/07 05:48:57;;;;;;;3.00;2.20;;;14.20;99.90;;;;;;5088461;28;20458;-45
2022/08/07 05:51:23;;;;;;;2.00;1.80;;;14.20;99.90;;;;;;5089872;28;20797;-45
2022/08/07 05:53:49;;;;;;;3.33;2.37;;;14.30;99.90;;;;;;5090745;28;20473;-49
2022/08/07 05:56:17;;;;;;;2.20;2.00;;;14.40;99.90;;;;;;5091366;28;20233;-46
2022/08/07 05:58:45;;;;;;;2.50;2.30;;;14.60;99.90;;;;;;5090041;28;20426;-45
2022/08/07 06:01:13;;;;;;;2.90;2.10;;;14.80;99.90;;;;;;5091189;28;20480;-47
2022/08/07 06:03:42;;;;;;;3.13;2.23;;;15.00;99.90;;;;;;5089239;28;20430;-45
2022/08/07 06:06:10;;;;;;;2.20;2.00;;;15.20;99.90;;;;;;5091055;28;20444;-44
2022/08/07 06:08:39;;;;;;;2.37;2.10;;;15.40;99.90;;;;;;5090415;28;20975;-45
2022/08/07 06:11:06;;;;;;;2.47;2.10;;;15.60;99.90;;;;;;5091165;28;20777;-47
2022/08/07 06:13:32;;;;;;;2.20;2.00;;;15.80;99.90;;;;;;5089372;28;20466;-46
2022/08/07 06:15:59;;;;;;;2.70;2.10;;;16.10;99.90;;;;;;5090700;28;20414;-45
2022/08/07 06:18:26;;;;;;;2.60;2.40;;;16.30;99.90;;;;;;5076779;28;20879;-48
2022/08/07 06:20:52;;;;;;;2.30;1.90;;;16.40;99.90;;;;;;5089505;28;20452;-50
2022/08/07 06:23:18;;;;;;;2.00;1.90;;;16.60;99.90;;;;;;5090632;28;20414;-45
2022/08/07 06:25:45;;;;;;;2.87;1.90;;;16.70;99.90;;;;;;5079955;28;20509;-45
2022/08/07 06:28:10;;;;;;;2.37;1.87;;;16.80;99.90;;;;;;5089083;28;20535;-46
2022/08/07 06:30:38;;;;;;;3.60;2.13;;;17.00;99.90;;;;;;5089205;28;20426;-46
2022/08/07 06:33:05;;;;;;;2.40;1.73;;;17.20;99.90;;;;;;5089724;28;20208;-45
2022/08/07 06:35:31;;;;;;;2.30;2.10;;;17.30;99.90;;;;;;5088769;28;20456;-47
2022/08/07 06:37:57;;;;;;;2.57;2.00;;;17.40;99.90;;;;;;5082522;28;20458;-44
2022/08/07 06:40:24;;;;;;;3.40;1.90;;;17.60;99.90;;;;;;5090421;28;20457;-49
2022/08/07 06:42:51;;;;;;;1.83;1.73;;;17.70;99.90;;;;;;5090419;28;20427;-48
2022/08/07 06:45:19;;;;;;;3.70;2.03;;;17.90;99.90;;;;;;5090148;28;20434;-47
2022/08/07 06:47:46;;;;;;;2.37;1.90;;;18.00;99.90;;;;;;5089804;28;20430;-44
2022/08/07 06:50:12;;;;;;;2.37;2.17;;;18.20;99.90;;;;;;5090155;28;20479;-47
2022/08/07 06:52:42;;;;;;;3.03;2.20;;;18.30;99.90;;;;;;5085272;28;20557;-50
2022/08/07 06:55:22;;;;;;;2.10;2.00;;;18.50;99.90;;;;;;5085175;28;20949;-44
2022/08/07 06:57:50;;;;;;;2.20;1.93;;;18.60;99.90;;;;;;5083525;28;20497;-45
2022/08/07 07:00:18;;;;;;;3.60;2.50;;;18.70;99.90;;;;;;5088620;28;20468;-43
2022/08/07 07:02:44;;;;;;;3.93;2.50;;;18.90;99.90;;;;;;5086382;28;20455;-44
2022/08/07 07:05:11;;;;;;;5.17;2.37;;;19.00;99.90;;;;;;5089145;28;20933;-45
2022/08/07 07:07:37;;;;;;;3.37;2.93;;;19.20;99.90;;;;;;5088195;28;20458;-49
2022/08/07 07:10:03;;;;;;;4.00;2.60;;;19.10;99.90;;;;;;5089554;28;20851;-45
2022/08/07 07:12:39;;;;;;;3.40;2.50;;;19.20;99.90;;;;;;5088963;28;20228;-44
2022/08/07 07:15:15;;;;;;;3.23;2.47;;;19.20;99.90;;;;;;5089657;28;20438;-44
2022/08/07 07:18:08;;;;;;;5.10;3.37;;;19.20;99.90;;;;;;5088683;27;20468;-45
2022/08/07 07:20:45;;;;;;;5.10;3.23;;;19.30;99.90;;;;;;5082272;28;20580;-46
2022/08/07 07:23:12;;;;;;;4.23;3.20;;;19.20;99.90;;;;;;5093170;28;20452;-45
2022/08/07 07:25:39;;;;;;;4.50;2.73;;;19.30;99.90;;;;;;5097093;28;20449;-48
2022/08/07 07:28:17;;;;;;;5.13;3.23;;;19.30;99.90;;;;;;5087747;27;20474;-45
2022/08/07 07:30:50;;;;;;;4.67;3.13;;;19.30;99.90;;;;;;5089870;28;20466;-46
2022/08/07 07:33:18;;;;;;;5.70;3.13;;;19.40;99.50;;;;;;5099792;27;20526;-51
2022/08/07 07:35:47;;;;;;;4.80;3.27;;;19.50;99.90;;;;;;5090666;28;20438;-46
2022/08/07 07:38:17;;;;;;;4.93;2.83;;;19.70;99.70;;;;;;5085553;28;20454;-49
2022/08/07 07:40:45;;;;;;;4.03;2.00;;;19.80;99.90;;;;;;5087316;28;20681;-44
2022/08/07 07:43:13;;;;;;;4.07;2.30;;;19.90;99.70;;;;;;5087541;28;21052;-46
2022/08/07 07:45:39;;;;;;;2.97;1.90;;;19.90;98.90;;;;;;5087122;28;20449;-49
2022/08/07 07:48:08;;;;;;;3.50;1.83;;;19.90;99.00;;;;;;5071949;28;21028;-46
2022/08/07 07:50:35;;;;;;;2.70;1.80;;;19.80;99.30;;;;;;5091806;28;20449;-48
2022/08/07 07:53:01;;;;;;;2.90;1.73;;;19.80;99.90;;;;;;5090769;28;20573;-47
2022/08/07 07:55:29;;;;;;;2.87;2.23;;;19.90;99.90;;;;;;5090374;28;20442;-44
2022/08/07 07:57:57;;;;;;;1.77;1.57;;;19.80;99.90;;;;;;5091621;28;20442;-48
2022/08/07 08:00:26;;;;;;;2.10;1.60;;;19.80;99.90;;;;;;5091614;28;20453;-49
2022/08/07 08:02:56;;;;;;;2.33;1.40;;;19.80;99.80;;;;;;5092013;28;20446;-47
2022/08/07 08:05:23;;;;;;;1.97;1.70;;;19.90;99.90;;;;;;5089826;28;20584;-45
2022/08/07 08:07:49;;;;;;;2.30;1.50;;;19.80;99.80;;;;;;5072356;28;21175;-45
2022/08/07 08:10:18;;;;;;;2.00;1.57;;;19.90;99.80;;;;;;5092932;28;20442;-45
2022/08/07 08:12:45;;;;;;;3.63;1.50;;;19.80;99.70;;;;;;5092141;28;20519;-49
2022/08/07 08:15:11;;;;;;;2.23;1.63;;;19.80;99.90;;;;;;5093087;28;20526;-45
2022/08/07 08:17:39;;;;;;;2.60;1.90;;;19.80;99.70;;;;;;5092230;28;21410;-47
2022/08/07 08:20:07;;;;;;;1.60;1.50;;;19.90;99.90;;;;;;5091356;28;20510;-45
2022/08/07 08:28:13;;;;;;;2.03;1.20;;;20.10;98.90;;;;;;5084755;28;20462;-46
2022/08/07 08:30:40;;;;;;;1.83;1.30;;;20.20;97.60;;;;;;5085168;28;20446;-48
2022/08/07 08:33:07;;;;;;;1.33;1.03;;;20.20;97.50;;;;;;5094119;28;21027;-48
2022/08/07 08:35:34;;;;;;;2.10;1.37;;;20.20;98.20;;;;;;5085359;28;20451;-49
2022/08/07 08:38:02;;;;;;;1.77;1.40;;;20.20;98.50;;;;;;5078488;28;20979;-47
2022/08/07 08:40:36;;;;;;;1.73;1.00;;;20.20;98.70;;;;;;5073521;28;20464;-49
2022/08/07 08:43:17;;;;;;;2.93;1.30;;;20.20;98.20;;;;;;5090820;28;20477;-46
2022/08/07 08:46:11;;;;;;;1.23;1.00;;;20.20;97.30;;;;;;5091502;28;20449;-52
2022/08/07 08:48:52;;;;;;;1.10;1.00;;;20.30;96.80;;;;;;5073045;28;20430;-45
2022/08/07 08:51:24;;;;;;;0.90;0.70;;;20.30;96.30;;;;;;5092206;28;20432;-46
2022/08/07 08:53:52;;;;;;;1.20;1.00;;;20.30;94.60;;;;;;5092150;28;20462;-45
2022/08/07 08:56:41;;;;;;;1.10;1.00;;;20.40;94.30;;;;;;5092418;28;20438;-47
2022/08/07 08:59:39;;;;;;;0.90;0.70;;;20.40;95.90;;;;;;5090750;28;20414;-45
2022/08/07 09:02:37;;;;;;;0.83;0.70;;;20.50;94.50;;;;;;5091274;28;20429;-47
2022/08/07 09:05:25;;;;;;;2.00;1.07;;;20.60;93.10;;;;;;5090295;28;20503;-45
2022/08/07 09:08:16;;;;;;;1.57;1.10;;;20.70;93.60;;;;;;5091656;28;20419;-46
2022/08/07 09:11:06;;;;;;;0.90;0.83;;;20.80;93.20;;;;;;5092411;28;20756;-45
2022/08/07 09:13:57;;;;;;;2.40;0.70;;;20.90;91.90;;;;;;5092355;28;20462;-45
2022/08/07 09:16:40;;;;;;;1.37;0.90;;;20.90;92.00;;;;;;5092377;28;20434;-44
2022/08/07 09:19:18;;;;;;;0.90;0.70;;;21.00;91.90;;;;;;5090631;28;20487;-44
2022/08/07 09:21:48;;;;;;;1.70;0.80;;;21.20;91.20;;;;;;5092189;28;20965;-44
2022/08/07 09:24:38;;;;;;;1.07;0.80;;;21.30;92.60;;;;;;5092153;28;20422;-45
2022/08/07 09:27:29;;;;;;;2.00;0.80;;;21.40;92.70;;;;;;5091471;28;20461;-44
2022/08/07 09:30:04;;;;;;;1.20;0.80;;;21.50;91.60;;;;;;5091780;28;20479;-45
2022/08/07 09:32:54;;;;;;;2.07;0.87;;;21.70;91.40;;;;;;5092021;28;20496;-47
2022/08/07 09:35:41;;;;;;;1.00;0.80;;;21.90;92.40;;;;;;5091927;28;20514;-46
2022/08/07 09:38:07;;;;;;;1.03;0.70;;;22.10;92.40;;;;;;5091032;28;20453;-47
2022/08/07 09:40:50;;;;;;;1.00;0.90;;;22.20;90.50;;;;;;5091820;28;20567;-45
2022/08/07 09:43:46;;;;;;;1.10;1.00;;;22.40;91.90;;;;;;5091699;28;20437;-47
2022/08/07 09:46:39;;;;;;;0.90;0.70;;;22.50;90.60;;;;;;5091965;28;20418;-45
2022/08/07 09:49:29;;;;;;;0.80;0.80;;;22.60;87.50;;;;;;5091674;28;20424;-49
2022/08/07 09:52:22;;;;;;;0.80;0.77;;;22.70;90.00;;;;;;5091443;28;20419;-45
2022/08/07 09:55:00;;;;;;;1.87;0.50;;;22.70;87.50;;;;;;5091406;28;20467;-44
2022/08/07 09:57:48;;;;;;;1.23;0.80;;;22.80;84.10;;;;;;5090697;28;20425;-46
2022/08/07 10:00:19;;;;;;;0.70;0.53;;;22.90;78.90;;;;;;5089883;28;20468;-44
2022/08/07 10:03:13;;;;;;;1.03;0.60;;;23.00;83.20;;;;;;5091389;28;20440;-45
2022/08/07 10:06:14;;;;;;;2.03;0.67;;;23.10;80.10;;;;;;5091309;28;20450;-47
2022/08/07 10:09:09;;;;;;;1.40;0.73;;;23.10;81.30;;;;;;5081050;28;20430;-45
2022/08/07 10:12:23;;;;;;;2.30;0.90;;;23.20;80.30;;;;;;5089684;28;20444;-46
2022/08/07 10:14:51;;;;;;;1.83;0.60;;;23.30;80.20;;;;;;5050612;28;20424;-44
2022/08/07 10:17:33;;;;;;;2.07;0.73;;;23.40;79.30;;;;;;5081461;28;20450;-46
2022/08/07 10:20:17;;;;;;;0.67;0.60;;;23.30;75.60;;;;;;5089210;28;20525;-47
2022/08/07 10:22:45;;;;;;;2.30;0.90;;;23.40;76.70;;;;;;5090904;28;20426;-47
2022/08/07 10:25:23;;;;;;;0.83;0.70;;;23.50;78.90;;;;;;5090755;28;21001;-48
2022/08/07 10:27:59;;;;;;;1.43;1.30;;;23.50;75.10;;;;;;5089867;28;20402;-51
2022/08/07 10:30:34;;;;;;;1.50;0.70;;;23.50;75.70;;;;;;5090221;28;20457;-49
2022/08/07 10:33:31;;;;;;;1.00;0.70;;;23.50;74.90;;;;;;5089108;28;20537;-50
2022/08/07 10:36:25;;;;;;;1.10;0.80;;;23.50;72.10;;;;;;5088926;28;20411;-48
2022/08/07 10:38:59;;;;;;;1.73;1.13;;;23.50;72.20;;;;;;5088489;28;20479;-46
2022/08/07 10:41:36;;;;;;;0.70;0.60;;;23.60;73.40;;;;;;5089765;28;20414;-45
2022/08/07 10:44:02;;;;;;;1.00;0.77;;;23.70;70.10;;;;;;5090661;28;20447;-49
2022/08/07 10:46:34;;;;;;;2.10;0.70;;;23.60;68.80;;;;;;5089408;28;20418;-45
2022/08/07 10:49:21;;;;;;;0.73;0.57;;;23.70;70.40;;;;;;5088410;28;20678;-45
2022/08/07 10:52:27;;;;;;;1.63;0.70;;;23.60;70.20;;;;;;5090239;28;20571;-45
2022/08/07 10:55:16;;;;;;;1.13;0.83;;;23.70;73.70;;;;;;5071671;28;20853;-45
2022/08/07 10:58:01;;;;;;;1.93;0.80;;;23.80;72.80;;;;;;5089605;28;20406;-46
2022/08/07 11:00:33;;;;;;;0.90;0.80;;;24.00;72.20;;;;;;5090358;28;20402;-45
2022/08/07 11:03:18;;;;;;;2.83;0.73;;;24.00;69.80;;;;;;5090473;28;20414;-46
2022/08/07 11:05:50;;;;;;;1.43;0.77;;;24.20;70.20;;;;;;5090021;28;20442;-47
2022/08/07 11:08:42;;;;;;;1.43;0.77;;;24.20;70.50;;;;;;5089528;28;20422;-47
2022/08/07 11:11:16;;;;;;;0.90;0.77;;;24.30;75.70;;;;;;5090090;28;20765;-47
2022/08/07 11:14:11;;;;;;;1.07;0.90;;;24.40;68.30;;;;;;5090032;28;20569;-48
2022/08/07 11:16:55;;;;;;;0.80;0.70;;;24.40;67.20;;;;;;5070310;28;20430;-45
2022/08/07 11:19:42;;;;;;;1.23;0.80;;;24.20;67.70;;;;;;5089353;28;20495;-46
2022/08/07 11:22:16;;;;;;;0.83;0.70;;;24.20;69.20;;;;;;5089247;28;20952;-47
2022/08/07 11:24:48;;;;;;;1.20;0.90;;;24.30;70.30;;;;;;5089992;28;20913;-44
2022/08/07 11:27:26;;;;;;;0.60;0.60;;;24.40;67.30;;;;;;5089212;28;20422;-43
2022/08/07 11:30:19;;;;;;;1.17;0.80;;;24.50;69.20;;;;;;5090185;28;20414;-49
2022/08/07 11:33:00;;;;;;;0.73;0.73;;;24.50;73.60;;;;;;5087756;28;20469;-46
2022/08/07 11:35:49;;;;;;;1.73;1.00;;;24.60;72.50;;;;;;5089973;28;20413;-46
2022/08/07 11:38:30;;;;;;;1.50;0.60;;;24.60;68.10;;;;;;5089202;28;20746;-45
2022/08/07 11:41:13;;;;;;;1.00;0.90;;;24.60;69.70;;;;;;5089897;28;20522;-47
2022/08/07 11:43:57;;;;;;;1.27;0.93;;;24.70;65.20;;;;;;5089657;28;20456;-46
2022/08/07 11:46:51;;;;;;;0.93;0.90;;;24.80;70.00;;;;;;5089864;28;20418;-45
2022/08/07 11:49:55;;;;;;;1.47;1.37;;;24.90;71.20;;;;;;5089591;28;20414;-50
2022/08/07 11:52:51;;;;;;;0.70;0.60;;;25.00;72.80;;;;;;5088281;28;20461;-45
2022/08/07 11:55:42;;;;;;;1.03;0.90;;;25.10;71.30;;;;;;5089434;28;20411;-45
2022/08/07 11:58:29;;;;;;;0.80;0.80;;;25.10;69.70;;;;;;5089066;28;21081;-44
2022/08/07 12:01:06;;;;;;;1.00;0.90;;;25.20;73.60;;;;;;5089732;28;20415;-45
2022/08/07 12:03:50;;;;;;;3.73;1.10;;;25.20;66.10;;;;;;5089528;28;20410;-44
2022/08/07 12:06:35;;;;;;;0.60;0.60;;;25.20;64.70;;;;;;5089351;28;20438;-46
2022/08/07 12:09:08;;;;;;;0.80;0.70;;;25.10;66.50;;;;;;5089639;28;20446;-45
2022/08/07 12:11:43;;;;;;;1.30;0.90;;;25.00;64.60;;;;;;5089477;28;20977;-45
2022/08/07 12:14:22;;;;;;;1.20;1.03;;;25.00;64.00;;;;;;5089410;28;20804;-45
2022/08/07 12:16:57;;;;;;;1.10;0.70;;;24.90;63.20;;;;;;5088346;28;20943;-45
2022/08/07 12:19:59;;;;;;;1.00;0.80;;;24.90;67.70;;;;;;5070155;28;20937;-44
2022/08/07 12:22:34;;;;;;;1.17;0.80;;;25.00;67.90;;;;;;5089365;28;20502;-44
2022/08/07 12:28:04;;;;;;;1.30;0.70;;;25.20;69.90;;;;;;5087491;28;20426;-44
2022/08/07 12:30:37;;;;;;;1.00;0.80;;;25.20;67.70;;;;;;5089309;28;20937;-46
2022/08/07 12:33:11;;;;;;;1.47;0.70;;;25.30;66.20;;;;;;5090922;28;21159;-47
2022/08/07 12:35:40;;;;;;;0.90;0.77;;;25.30;67.40;;;;;;5091806;28;20441;-47
2022/08/07 12:38:07;;;;;;;1.10;0.70;;;25.40;70.70;;;;;;5092430;28;20932;-44
2022/08/07 12:40:35;;;;;;;1.03;0.87;;;25.40;69.30;;;;;;5091643;28;20422;-44
2022/08/07 12:43:03;;;;;;;1.60;0.70;;;25.40;65.80;;;;;;5092818;28;20448;-45
2022/08/07 12:45:53;;;;;;;1.30;1.00;;;25.40;65.80;;;;;;5092818;28;20449;-49
2022/08/07 12:48:47;;;;;;;1.27;0.87;;;25.20;61.60;;;;;;5071612;28;20422;-46
2022/08/07 12:51:19;;;;;;;1.47;0.70;;;25.00;60.10;;;;;;5091617;28;20436;-47
2022/08/07 12:53:59;;;;;;;1.23;0.90;;;25.00;59.00;;;;;;5091086;28;20541;-47
2022/08/07 12:56:30;;;;;;;0.80;0.73;;;25.10;60.00;;;;;;5092860;28;20446;-45
2022/08/07 12:58:58;;;;;;;2.00;0.90;;;25.20;63.70;;;;;;5092135;28;20422;-44
2022/08/07 13:01:42;;;;;;;0.70;0.60;;;25.30;62.60;;;;;;5092022;28;20450;-46
2022/08/07 13:04:23;;;;;;;0.90;0.70;;;25.30;59.40;;;;;;5088328;28;20418;-45
2022/08/07 13:06:56;;;;;;;1.20;0.70;;;25.40;60.70;;;;;;5089993;28;20442;-47
2022/08/07 13:09:50;;;;;;;1.00;0.80;;;25.40;59.70;;;;;;5092212;28;20426;-48
2022/08/07 13:12:40;;;;;;;2.27;1.03;;;25.50;60.70;;;;;;5092260;28;20457;-50
2022/08/07 13:15:06;;;;;;;1.00;0.90;;;25.60;60.80;;;;;;5091918;28;20423;-49
2022/08/07 13:17:56;;;;;;;2.37;1.00;;;25.50;58.40;;;;;;5091629;28;20834;-46
2022/08/07 13:20:45;;;;;;;0.90;0.70;;;25.60;63.90;;;;;;5087216;28;20181;-50
2022/08/07 13:23:31;;;;;;;0.80;0.80;;;25.60;62.40;;;;;;5091080;28;20446;-44
2022/08/07 13:26:31;;;;;;;0.70;0.70;;;25.70;62.50;;;;;;5090412;28;20415;-44
2022/08/07 13:29:11;;;;;;;0.70;0.70;;;25.80;62.30;;;;;;5084237;28;20422;-47